Terminal Aerodrome Forecast
Issued by NWS Omaha/Valley, NE

Home | Current Version | Previous Version | Text Only | Print | Product List | Glossary On
Versions: 1 2 3 4 5 6 7 8 9 10 11 12 13 14 15 16 17 18 19 20 21 22 23 24 25 26 27 28 29 30 31 32 33 34 35 36 37 38 39 40
000
FTUS43 KOAX 070532
TAFOMA
TAF
KOMA 070532Z 0706/0806 19005KT 3SM TSRA OVC025CB
     FM071000 16018G25KT P6SM OVC050
     FM071300 17015G22KT P6SM OVC025
     FM071800 19012G20KT P6SM OVC050
     FM072200 25012KT P6SM BKN050
     FM080000 31010KT P6SM SCT250=

USA.gov is the U.S. government's official web portal to all federal, state and local government web resources and services.